sensor_id;sensor_type;location;lat;lon;timestamp;pressure;altitude;pressure_sealevel;temperature;humidity
59791;BME280;47431;51.640;5.554;2023-10-31T00:02:07;100495.97;;;8.45;100.00
59791;BME280;47431;51.640;5.554;2023-10-31T00:04:33;100501.88;;;8.35;100.00
59791;BME280;47431;51.640;5.554;2023-10-31T00:06:58;100502.06;;;8.32;100.00
59791;BME280;47431;51.640;5.554;2023-10-31T00:09:23;100504.00;;;8.30;100.00
59791;BME280;47431;51.640;5.554;2023-10-31T00:11:49;100513.63;;;8.33;100.00
59791;BME280;47431;51.640;5.554;2023-10-31T00:14:14;100514.09;;;8.40;100.00
59791;BME280;47431;51.640;5.554;2023-10-31T00:16:40;100538.88;;;8.43;100.00
59791;BME280;47431;51.640;5.554;2023-10-31T00:19:06;100546.09;;;8.41;100.00
59791;BME280;47431;51.640;5.554;2023-10-31T00:21:32;100542.50;;;8.42;100.00
59791;BME280;47431;51.640;5.554;2023-10-31T00:23:57;100547.94;;;8.41;100.00
59791;BME280;47431;51.640;5.554;2023-10-31T00:26:23;100552.25;;;8.43;100.00
59791;BME280;47431;51.640;5.554;2023-10-31T00:28:48;100551.00;;;8.49;100.00
59791;BME280;47431;51.640;5.554;2023-10-31T00:31:14;100559.66;;;8.54;100.00
59791;BME280;47431;51.640;5.554;2023-10-31T00:33:39;100564.78;;;8.57;100.00
59791;BME280;47431;51.640;5.554;2023-10-31T00:36:05;100577.06;;;8.61;100.00
59791;BME280;47431;51.640;5.554;2023-10-31T00:38:31;100574.28;;;8.63;100.00
59791;BME280;47431;51.640;5.554;2023-10-31T00:40:56;100577.72;;;8.65;100.00
59791;BME280;47431;51.640;5.554;2023-10-31T00:43:22;100589.28;;;8.66;100.00
59791;BME280;47431;51.640;5.554;2023-10-31T00:45:47;100591.19;;;8.63;100.00
59791;BME280;47431;51.640;5.554;2023-10-31T00:48:12;100616.31;;;8.61;100.00
59791;BME280;47431;51.640;5.554;2023-10-31T00:50:38;100615.53;;;8.59;100.00
59791;BME280;47431;51.640;5.554;2023-10-31T00:53:03;100621.75;;;8.59;100.00
59791;BME280;47431;51.640;5.554;2023-10-31T00:55:28;100625.22;;;8.61;100.00
59791;BME280;47431;51.640;5.554;2023-10-31T00:57:54;100633.41;;;8.58;100.00
59791;BME280;47431;51.640;5.554;2023-10-31T01:00:19;100633.41;;;8.58;100.00
59791;BME280;47431;51.640;5.554;2023-10-31T01:02:45;100633.41;;;8.58;100.00
59791;BME280;47431;51.640;5.554;2023-10-31T01:05:10;100630.72;;;8.58;100.00
59791;BME280;47431;51.640;5.554;2023-10-31T01:07:36;100645.25;;;8.54;100.00
59791;BME280;47431;51.640;5.554;2023-10-31T01:10:02;100645.31;;;8.53;100.00
59791;BME280;47431;51.640;5.554;2023-10-31T01:12:28;100654.25;;;8.52;100.00
59791;BME280;47431;51.640;5.554;2023-10-31T01:14:54;100664.88;;;8.53;100.00
59791;BME280;47431;51.640;5.554;2023-10-31T01:17:20;100669.47;;;8.51;100.00
59791;BME280;47431;51.640;5.554;2023-10-31T01:19:46;100668.59;;;8.50;100.00
59791;BME280;47431;51.640;5.554;2023-10-31T01:22:11;100672.22;;;8.49;100.00
59791;BME280;47431;51.640;5.554;2023-10-31T01:24:37;100672.97;;;8.52;100.00
59791;BME280;47431;51.640;5.554;2023-10-31T01:27:02;100674.91;;;8.49;100.00
59791;BME280;47431;51.640;5.554;2023-10-31T01:29:28;100664.22;;;8.49;100.00
59791;BME280;47431;51.640;5.554;2023-10-31T01:31:53;100678.25;;;8.53;100.00
59791;BME280;47431;51.640;5.554;2023-10-31T01:34:19;100682.69;;;8.54;100.00
59791;BME280;47431;51.640;5.554;2023-10-31T01:36:44;100680.09;;;8.53;100.00
59791;BME280;47431;51.640;5.554;2023-10-31T01:39:10;100681.81;;;8.54;100.00
59791;BME280;47431;51.640;5.554;2023-10-31T01:41:35;100691.63;;;8.53;100.00
59791;BME280;47431;51.640;5.554;2023-10-31T01:44:01;100689.91;;;8.52;100.00
59791;BME280;47431;51.640;5.554;2023-10-31T01:46:27;100686.34;;;8.52;100.00
59791;BME280;47431;51.640;5.554;2023-10-31T01:48:53;100694.16;;;8.56;100.00
59791;BME280;47431;51.640;5.554;2023-10-31T01:51:21;100698.53;;;8.57;100.00
59791;BME280;47431;51.640;5.554;2023-10-31T01:53:47;100683.44;;;8.56;100.00
59791;BME280;47431;51.640;5.554;2023-10-31T01:56:13;100695.88;;;8.57;100.00
59791;BME280;47431;51.640;5.554;2023-10-31T01:58:38;100684.41;;;8.55;100.00
59791;BME280;47431;51.640;5.554;2023-10-31T02:01:05;100688.72;;;8.58;100.00
59791;BME280;47431;51.640;5.554;2023-10-31T02:03:31;100694.84;;;8.60;100.00
59791;BME280;47431;51.640;5.554;2023-10-31T02:05:58;100692.84;;;8.63;100.00
59791;BME280;47431;51.640;5.554;2023-10-31T02:08:24;100699.94;;;8.65;100.00
59791;BME280;47431;51.640;5.554;2023-10-31T02:10:50;100689.22;;;8.65;100.00
59791;BME280;47431;51.640;5.554;2023-10-31T02:13:17;100684.53;;;8.68;100.00
59791;BME280;47431;51.640;5.554;2023-10-31T02:15:43;100693.34;;;8.70;100.00
59791;BME280;47431;51.640;5.554;2023-10-31T02:18:09;100691.44;;;8.72;100.00
59791;BME280;47431;51.640;5.554;2023-10-31T02:20:35;100689.53;;;8.74;100.00
59791;BME280;47431;51.640;5.554;2023-10-31T02:23:02;100691.44;;;8.72;100.00
59791;BME280;47431;51.640;5.554;2023-10-31T02:25:27;100682.38;;;8.75;100.00
59791;BME280;47431;51.640;5.554;2023-10-31T02:27:53;100685.06;;;8.75;100.00
59791;BME280;47431;51.640;5.554;2023-10-31T02:30:18;100687.53;;;8.78;100.00
59791;BME280;47431;51.640;5.554;2023-10-31T02:32:44;100687.53;;;8.78;100.00
59791;BME280;47431;51.640;5.554;2023-10-31T02:35:10;100690.03;;;8.81;100.00
59791;BME280;47431;51.640;5.554;2023-10-31T02:37:36;100690.81;;;8.83;100.00
59791;BME280;47431;51.640;5.554;2023-10-31T02:40:02;100690.03;;;8.81;100.00
59791;BME280;47431;51.640;5.554;2023-10-31T02:42:28;100708.50;;;8.86;100.00
59791;BME280;47431;51.640;5.554;2023-10-31T02:44:53;100700.38;;;8.87;100.00
59791;BME280;47431;51.640;5.554;2023-10-31T02:47:19;100700.28;;;8.89;100.00
59791;BME280;47431;51.640;5.554;2023-10-31T02:49:44;100710.03;;;8.90;100.00
59791;BME280;47431;51.640;5.554;2023-10-31T02:52:10;100705.72;;;8.87;100.00
59791;BME280;47431;51.640;5.554;2023-10-31T02:54:35;100715.38;;;8.90;100.00
59791;BME280;47431;51.640;5.554;2023-10-31T02:57:01;100708.13;;;8.92;100.00
59791;BME280;47431;51.640;5.554;2023-10-31T02:59:26;100719.72;;;8.93;100.00
59791;BME280;47431;51.640;5.554;2023-10-31T03:01:52;100717.78;;;8.95;100.00
59791;BME280;47431;51.640;5.554;2023-10-31T03:04:18;100714.16;;;8.96;100.00
59791;BME280;47431;51.640;5.554;2023-10-31T03:06:43;100716.81;;;8.96;100.00
59791;BME280;47431;51.640;5.554;2023-10-31T03:09:09;100721.25;;;8.97;100.00
59791;BME280;47431;51.640;5.554;2023-10-31T03:11:34;100717.78;;;8.95;100.00
59791;BME280;47431;51.640;5.554;2023-10-31T03:13:59;100722.09;;;8.97;100.00
59791;BME280;47431;51.640;5.554;2023-10-31T03:16:25;100737.31;;;8.97;100.00
59791;BME280;47431;51.640;5.554;2023-10-31T03:18:50;100736.44;;;8.96;100.00
59791;BME280;47431;51.640;5.554;2023-10-31T03:21:17;100733.00;;;8.94;100.00
59791;BME280;47431;51.640;5.554;2023-10-31T03:23:50;100742.84;;;8.94;100.00
59791;BME280;47431;51.640;5.554;2023-10-31T03:26:16;100746.47;;;8.93;100.00
59791;BME280;47431;51.640;5.554;2023-10-31T03:28:43;100752.56;;;8.95;100.00
59791;BME280;47431;51.640;5.554;2023-10-31T03:31:10;100752.56;;;8.95;100.00
59791;BME280;47431;51.640;5.554;2023-10-31T03:33:35;100758.81;;;8.95;100.00
59791;BME280;47431;51.640;5.554;2023-10-31T03:36:01;100757.84;;;8.96;100.00
59791;BME280;47431;51.640;5.554;2023-10-31T03:38:26;100765.78;;;8.98;100.00
59791;BME280;47431;51.640;5.554;2023-10-31T03:40:52;100759.75;;;8.94;100.00
59791;BME280;47431;51.640;5.554;2023-10-31T03:43:18;100775.63;;;8.97;100.00
59791;BME280;47431;51.640;5.554;2023-10-31T03:45:43;100775.72;;;8.96;100.00
59791;BME280;47431;51.640;5.554;2023-10-31T03:48:08;100774.06;;;8.93;100.00
59791;BME280;47431;51.640;5.554;2023-10-31T03:50:34;100775.03;;;8.92;100.00
59791;BME280;47431;51.640;5.554;2023-10-31T03:52:59;100778.84;;;8.88;100.00
59791;BME280;47431;51.640;5.554;2023-10-31T03:55:25;100778.94;;;8.86;100.00
59791;BME280;47431;51.640;5.554;2023-10-31T03:57:50;100791.53;;;8.84;100.00
59791;BME280;47431;51.640;5.554;2023-10-31T04:00:16;100793.38;;;8.84;100.00
59791;BME280;47431;51.640;5.554;2023-10-31T04:02:41;100793.38;;;8.84;100.00
59791;BME280;47431;51.640;5.554;2023-10-31T04:05:07;100803.97;;;8.85;100.00
59791;BME280;47431;51.640;5.554;2023-10-31T04:07:32;100796.72;;;8.87;100.00
59791;BME280;47431;51.640;5.554;2023-10-31T04:09:57;100808.38;;;8.86;100.00
59791;BME280;47431;51.640;5.554;2023-10-31T04:12:23;100803.97;;;8.85;100.00
59791;BME280;47431;51.640;5.554;2023-10-31T04:14:48;100814.56;;;8.87;100.00
59791;BME280;47431;51.640;5.554;2023-10-31T04:17:14;100819.84;;;8.88;100.00
59791;BME280;47431;51.640;5.554;2023-10-31T04:19:39;100825.09;;;8.90;100.00
59791;BME280;47431;51.640;5.554;2023-10-31T04:22:05;100829.53;;;8.91;100.00
59791;BME280;47431;51.640;5.554;2023-10-31T04:24:30;100826.78;;;8.93;100.00
59791;BME280;47431;51.640;5.554;2023-10-31T04:26:56;100825.72;;;8.95;100.00
59791;BME280;47431;51.640;5.554;2023-10-31T04:29:22;100831.84;;;8.97;100.00
59791;BME280;47431;51.640;5.554;2023-10-31T04:31:47;100830.03;;;8.98;100.00
59791;BME280;47431;51.640;5.554;2023-10-31T04:34:13;100822.25;;;8.93;100.00
59791;BME280;47431;51.640;5.554;2023-10-31T04:36:39;100835.47;;;8.96;100.00
59791;BME280;47431;51.640;5.554;2023-10-31T04:39:05;100841.69;;;8.97;100.00
59791;BME280;47431;51.640;5.554;2023-10-31T04:41:30;100838.06;;;8.98;100.00
59791;BME280;47431;51.640;5.554;2023-10-31T04:43:55;100840.72;;;8.98;100.00
59791;BME280;47431;51.640;5.554;2023-10-31T04:46:21;100848.69;;;8.99;100.00
59791;BME280;47431;51.640;5.554;2023-10-31T04:48:46;100849.56;;;9.00;100.00
59791;BME280;47431;51.640;5.554;2023-10-31T04:51:12;100849.72;;;8.97;100.00
59791;BME280;47431;51.640;5.554;2023-10-31T04:53:37;100854.28;;;8.95;100.00
59791;BME280;47431;51.640;5.554;2023-10-31T04:56:03;100856.13;;;8.94;100.00
59791;BME280;47431;51.640;5.554;2023-10-31T04:58:29;100869.59;;;8.93;100.00
59791;BME280;47431;51.640;5.554;2023-10-31T05:00:54;100866.91;;;8.93;100.00
59791;BME280;47431;51.640;5.554;2023-10-31T05:03:20;100868.03;;;8.88;100.00
59791;BME280;47431;51.640;5.554;2023-10-31T05:05:45;100871.47;;;8.91;100.00
59791;BME280;47431;51.640;5.554;2023-10-31T05:08:10;100877.72;;;8.91;100.00
59791;BME280;47431;51.640;5.554;2023-10-31T05:10:36;100877.63;;;8.93;100.00
59791;BME280;47431;51.640;5.554;2023-10-31T05:13:01;100880.47;;;8.90;100.00
59791;BME280;47431;51.640;5.554;2023-10-31T05:15:30;100877.97;;;8.86;100.00
59791;BME280;47431;51.640;5.554;2023-10-31T05:17:55;100877.97;;;8.86;100.00
59791;BME280;47431;51.640;5.554;2023-10-31T05:20:20;100894.94;;;8.85;100.00
59791;BME280;47431;51.640;5.554;2023-10-31T05:22:46;100890.56;;;8.84;100.00
59791;BME280;47431;51.640;5.554;2023-10-31T05:25:11;100897.63;;;8.85;100.00
59791;BME280;47431;51.640;5.554;2023-10-31T05:27:37;100896.88;;;8.83;100.00
59791;BME280;47431;51.640;5.554;2023-10-31T05:30:03;100899.63;;;8.82;100.00
59791;BME280;47431;51.640;5.554;2023-10-31T05:32:29;100890.72;;;8.81;100.00
59791;BME280;47431;51.640;5.554;2023-10-31T05:34:54;100895.25;;;8.81;100.00
59791;BME280;47431;51.640;5.554;2023-10-31T05:37:20;100897.84;;;8.82;100.00
59791;BME280;47431;51.640;5.554;2023-10-31T05:39:45;100900.59;;;8.81;100.00
59791;BME280;47431;51.640;5.554;2023-10-31T05:42:10;100903.25;;;8.81;100.00
59791;BME280;47431;51.640;5.554;2023-10-31T05:44:36;100907.75;;;8.80;100.00
59791;BME280;47431;51.640;5.554;2023-10-31T05:47:01;100907.75;;;8.80;100.00
59791;BME280;47431;51.640;5.554;2023-10-31T05:49:26;100914.97;;;8.78;100.00
59791;BME280;47431;51.640;5.554;2023-10-31T05:51:52;100925.69;;;8.78;100.00
59791;BME280;47431;51.640;5.554;2023-10-31T05:54:18;100946.25;;;8.78;100.00
59791;BME280;47431;51.640;5.554;2023-10-31T05:56:44;100947.09;;;8.78;100.00
59791;BME280;47431;51.640;5.554;2023-10-31T05:59:12;100940.81;;;8.79;100.00
59791;BME280;47431;51.640;5.554;2023-10-31T06:01:38;100937.25;;;8.79;100.00
59791;BME280;47431;51.640;5.554;2023-10-31T06:04:03;100954.19;;;8.79;100.00
59791;BME280;47431;51.640;5.554;2023-10-31T06:06:32;100952.28;;;8.81;100.00
59791;BME280;47431;51.640;5.554;2023-10-31T06:08:58;100953.16;;;8.82;100.00
59791;BME280;47431;51.640;5.554;2023-10-31T06:11:25;100962.22;;;8.79;100.00
59791;BME280;47431;51.640;5.554;2023-10-31T06:13:50;100965.75;;;8.80;100.00
59791;BME280;47431;51.640;5.554;2023-10-31T06:16:16;100962.31;;;8.78;100.00
59791;BME280;47431;51.640;5.554;2023-10-31T06:18:41;100961.34;;;8.79;100.00
59791;BME280;47431;51.640;5.554;2023-10-31T06:21:06;100974.47;;;8.83;100.00
59791;BME280;47431;51.640;5.554;2023-10-31T06:23:35;100972.06;;;8.79;100.00
59791;BME280;47431;51.640;5.554;2023-10-31T06:26:01;100978.19;;;8.81;100.00
59791;BME280;47431;51.640;5.554;2023-10-31T06:28:26;100981.81;;;8.80;100.00
59791;BME280;47431;51.640;5.554;2023-10-31T06:30:52;100995.09;;;8.81;100.00
59791;BME280;47431;51.640;5.554;2023-10-31T06:33:17;100989.84;;;8.80;100.00
59791;BME280;47431;51.640;5.554;2023-10-31T06:35:42;100991.75;;;8.78;100.00
59791;BME280;47431;51.640;5.554;2023-10-31T06:38:08;100995.47;;;8.75;100.00
59791;BME280;47431;51.640;5.554;2023-10-31T06:40:33;100984.75;;;8.75;100.00
59791;BME280;47431;51.640;5.554;2023-10-31T06:42:58;100995.53;;;8.73;100.00
59791;BME280;47431;51.640;5.554;2023-10-31T06:45:24;100997.25;;;8.74;100.00
59791;BME280;47431;51.640;5.554;2023-10-31T06:47:49;100988.59;;;8.69;100.00
59791;BME280;47431;51.640;5.554;2023-10-31T06:50:15;100987.84;;;8.67;100.00
59791;BME280;47431;51.640;5.554;2023-10-31T06:52:40;100992.47;;;8.63;100.00
59791;BME280;47431;51.640;5.554;2023-10-31T06:55:06;100993.50;;;8.61;100.00
59791;BME280;47431;51.640;5.554;2023-10-31T06:57:31;100996.28;;;8.59;100.00
59791;BME280;47431;51.640;5.554;2023-10-31T06:59:57;101003.34;;;8.60;100.00
59791;BME280;47431;51.640;5.554;2023-10-31T07:02:22;101014.91;;;8.61;100.00
59791;BME280;47431;51.640;5.554;2023-10-31T07:04:48;101015.78;;;8.61;100.00
59791;BME280;47431;51.640;5.554;2023-10-31T07:07:14;101024.66;;;8.62;100.00
59791;BME280;47431;51.640;5.554;2023-10-31T07:09:39;101014.03;;;8.60;100.00
59791;BME280;47431;51.640;5.554;2023-10-31T07:12:05;101015.00;;;8.59;100.00
59791;BME280;47431;51.640;5.554;2023-10-31T07:14:31;101015.16;;;8.56;100.00
59791;BME280;47431;51.640;5.554;2023-10-31T07:16:56;101000.81;;;8.57;100.00
59791;BME280;47431;51.640;5.554;2023-10-31T07:19:22;101010.28;;;8.65;100.00
59791;BME280;47431;51.640;5.554;2023-10-31T07:21:47;101016.22;;;8.70;100.00
59791;BME280;47431;51.640;5.554;2023-10-31T07:24:13;101020.47;;;8.74;100.00
59791;BME280;47431;51.640;5.554;2023-10-31T07:26:38;101031.25;;;8.72;100.00
59791;BME280;47431;51.640;5.554;2023-10-31T07:29:03;101018.91;;;8.70;100.00
59791;BME280;47431;51.640;5.554;2023-10-31T07:31:29;101023.22;;;8.72;100.00
59791;BME280;47431;51.640;5.554;2023-10-31T07:33:54;101021.44;;;8.73;100.00
59791;BME280;47431;51.640;5.554;2023-10-31T07:36:21;101033.75;;;8.75;100.00
59791;BME280;47431;51.640;5.554;2023-10-31T07:38:46;101023.69;;;8.81;100.00
59791;BME280;47431;51.640;5.554;2023-10-31T07:41:12;101033.59;;;8.79;100.00
59791;BME280;47431;51.640;5.554;2023-10-31T07:43:37;101031.25;;;8.72;100.00
59791;BME280;47431;51.640;5.554;2023-10-31T07:46:03;101047.47;;;8.69;100.00
59791;BME280;47431;51.640;5.554;2023-10-31T07:48:28;101035.28;;;8.63;100.00
59791;BME280;47431;51.640;5.554;2023-10-31T07:50:54;101039.72;;;8.65;100.00
59791;BME280;47431;51.640;5.554;2023-10-31T07:53:19;101047.53;;;8.68;100.00
59791;BME280;47431;51.640;5.554;2023-10-31T07:55:44;101040.25;;;8.71;100.00
59791;BME280;47431;51.640;5.554;2023-10-31T07:58:10;101049.75;;;8.77;100.00
59791;BME280;47431;51.640;5.554;2023-10-31T08:00:36;101049.50;;;8.82;100.00
59791;BME280;47431;51.640;5.554;2023-10-31T08:03:02;101055.53;;;8.85;100.00
59791;BME280;47431;51.640;5.554;2023-10-31T08:05:27;101050.72;;;8.92;100.00
59791;BME280;47431;51.640;5.554;2023-10-31T08:07:53;101051.00;;;9.04;100.00
59791;BME280;47431;51.640;5.554;2023-10-31T08:10:18;101047.50;;;9.19;100.00
59791;BME280;47431;51.640;5.554;2023-10-31T08:12:43;101054.41;;;9.23;100.00
59791;BME280;47431;51.640;5.554;2023-10-31T08:15:09;101047.59;;;9.34;100.00
59791;BME280;47431;51.640;5.554;2023-10-31T08:17:35;101043.19;;;9.49;100.00
59791;BME280;47431;51.640;5.554;2023-10-31T08:20:01;101049.75;;;9.59;100.00
59791;BME280;47431;51.640;5.554;2023-10-31T08:22:29;101063.56;;;9.51;100.00
59791;BME280;47431;51.640;5.554;2023-10-31T08:24:54;101055.47;;;10.00;100.00
59791;BME280;47431;51.640;5.554;2023-10-31T08:27:19;101067.06;;;10.00;100.00
59791;BME280;47431;51.640;5.554;2023-10-31T08:29:45;101058.47;;;10.10;100.00
59791;BME280;47431;51.640;5.554;2023-10-31T08:32:10;101062.88;;;10.11;100.00
59791;BME280;47431;51.640;5.554;2023-10-31T08:34:35;101060.78;;;10.16;100.00
59791;BME280;47431;51.640;5.554;2023-10-31T08:37:01;101055.34;;;10.18;100.00
59791;BME280;47431;51.640;5.554;2023-10-31T08:39:26;101060.38;;;10.08;100.00
59791;BME280;47431;51.640;5.554;2023-10-31T08:41:55;101055.38;;;10.01;100.00
59791;BME280;47431;51.640;5.554;2023-10-31T08:44:21;101049.97;;;10.18;100.00
59791;BME280;47431;51.640;5.554;2023-10-31T08:46:47;101049.44;;;10.27;100.00
59791;BME280;47431;51.640;5.554;2023-10-31T08:49:13;101034.47;;;10.53;100.00
59791;BME280;47431;51.640;5.554;2023-10-31T08:51:39;101009.94;;;10.74;100.00
59791;BME280;47431;51.640;5.554;2023-10-31T08:54:05;100952.69;;;10.59;100.00
59791;BME280;47431;51.640;5.554;2023-10-31T08:56:30;100897.59;;;10.68;100.00
59791;BME280;47431;51.640;5.554;2023-10-31T08:58:56;100806.56;;;10.50;100.00
59791;BME280;47431;51.640;5.554;2023-10-31T09:01:21;100727.16;;;10.33;100.00
59791;BME280;47431;51.640;5.554;2023-10-31T09:03:47;100665.03;;;10.39;100.00
59791;BME280;47431;51.640;5.554;2023-10-31T09:06:12;100641.38;;;10.46;100.00
59791;BME280;47431;51.640;5.554;2023-10-31T09:08:38;100608.09;;;10.49;100.00
59791;BME280;47431;51.640;5.554;2023-10-31T09:11:04;100596.50;;;10.48;100.00
59791;BME280;47431;51.640;5.554;2023-10-31T09:13:30;100597.63;;;10.72;100.00
59791;BME280;47431;51.640;5.554;2023-10-31T09:15:58;100594.81;;;11.12;100.00
59791;BME280;47431;51.640;5.554;2023-10-31T09:18:23;100627.47;;;10.80;100.00
59791;BME280;47431;51.640;5.554;2023-10-31T09:20:49;100651.13;;;10.75;100.00
59791;BME280;47431;51.640;5.554;2023-10-31T09:23:15;100666.44;;;10.73;100.00
59791;BME280;47431;51.640;5.554;2023-10-31T09:25:42;100678.84;;;11.14;100.00
59791;BME280;47431;51.640;5.554;2023-10-31T09:28:08;100685.69;;;11.71;100.00
59791;BME280;47431;51.640;5.554;2023-10-31T09:30:33;100713.63;;;11.81;100.00
59791;BME280;47431;51.640;5.554;2023-10-31T09:32:58;100721.13;;;12.02;100.00
59791;BME280;47431;51.640;5.554;2023-10-31T09:35:24;100765.03;;;12.15;100.00
59791;BME280;47431;51.640;5.554;2023-10-31T09:37:50;100792.88;;;12.27;100.00
59791;BME280;47431;51.640;5.554;2023-10-31T09:40:15;100849.03;;;12.06;100.00
59791;BME280;47431;51.640;5.554;2023-10-31T09:42:41;100886.41;;;11.44;100.00
59791;BME280;47431;51.640;5.554;2023-10-31T09:45:08;100912.63;;;11.13;100.00
59791;BME280;47431;51.640;5.554;2023-10-31T09:47:33;100935.97;;;10.98;100.00
59791;BME280;47431;51.640;5.554;2023-10-31T09:49:59;100976.09;;;10.72;100.00
59791;BME280;47431;51.640;5.554;2023-10-31T09:52:25;100986.16;;;10.68;100.00
59791;BME280;47431;51.640;5.554;2023-10-31T09:54:51;100994.69;;;10.75;100.00
59791;BME280;47431;51.640;5.554;2023-10-31T09:57:17;101029.00;;;10.55;100.00
59791;BME280;47431;51.640;5.554;2023-10-31T09:59:43;101030.44;;;10.90;100.00
59791;BME280;47431;51.640;5.554;2023-10-31T10:02:08;101066.16;;;11.34;100.00
59791;BME280;47431;51.640;5.554;2023-10-31T10:04:36;101083.88;;;11.66;100.00
59791;BME280;47431;51.640;5.554;2023-10-31T10:07:03;101084.38;;;12.54;100.00
59791;BME280;47431;51.640;5.554;2023-10-31T10:09:29;101129.97;;;12.29;100.00
59791;BME280;47431;51.640;5.554;2023-10-31T10:11:56;101139.50;;;11.93;100.00
59791;BME280;47431;51.640;5.554;2023-10-31T10:14:24;101177.88;;;11.67;100.00
59791;BME280;47431;51.640;5.554;2023-10-31T10:16:49;101195.72;;;11.10;100.00
59791;BME280;47431;51.640;5.554;2023-10-31T10:24:18;101237.19;;;10.59;100.00
59791;BME280;47431;51.640;5.554;2023-10-31T10:26:44;101242.13;;;10.35;100.00
59791;BME280;47431;51.640;5.554;2023-10-31T10:29:10;101254.69;;;10.34;100.00
59791;BME280;47431;51.640;5.554;2023-10-31T10:31:35;101257.44;;;10.17;100.00
59791;BME280;47431;51.640;5.554;2023-10-31T10:34:00;101263.16;;;10.26;100.00
59791;BME280;47431;51.640;5.554;2023-10-31T10:36:31;101259.38;;;10.47;100.00
59791;BME280;47431;51.640;5.554;2023-10-31T10:38:58;101269.84;;;10.51;100.00
59791;BME280;47431;51.640;5.554;2023-10-31T10:41:25;101279.81;;;10.49;100.00
59791;BME280;47431;51.640;5.554;2023-10-31T10:44:10;101278.56;;;10.71;100.00
59791;BME280;47431;51.640;5.554;2023-10-31T10:46:39;101282.50;;;11.41;100.00
59791;BME280;47431;51.640;5.554;2023-10-31T10:49:06;101295.28;;;12.25;100.00
59791;BME280;47431;51.640;5.554;2023-10-31T10:51:43;101315.59;;;12.59;100.00
59791;BME280;47431;51.640;5.554;2023-10-31T10:54:33;101329.31;;;12.96;100.00
59791;BME280;47431;51.640;5.554;2023-10-31T10:57:13;101368.50;;;12.30;100.00
59791;BME280;47431;51.640;5.554;2023-10-31T10:59:42;101388.47;;;11.83;100.00
59791;BME280;47431;51.640;5.554;2023-10-31T11:02:08;101395.41;;;12.01;100.00
59791;BME280;47431;51.640;5.554;2023-10-31T11:04:36;101409.81;;;11.86;100.00
59791;BME280;47431;51.640;5.554;2023-10-31T11:07:02;101416.00;;;11.72;100.00
59791;BME280;47431;51.640;5.554;2023-10-31T11:09:29;101417.53;;;11.76;100.00
59791;BME280;47431;51.640;5.554;2023-10-31T11:11:55;101404.84;;;11.63;100.00
59791;BME280;47431;51.640;5.554;2023-10-31T11:14:21;101422.97;;;11.29;100.00
59791;BME280;47431;51.640;5.554;2023-10-31T11:16:56;101424.63;;;11.15;100.00
59791;BME280;47431;51.640;5.554;2023-10-31T11:19:26;101409.59;;;10.97;100.00
59791;BME280;47431;51.640;5.554;2023-10-31T11:21:54;101405.94;;;10.98;100.00
59791;BME280;47431;51.640;5.554;2023-10-31T11:24:21;101383.94;;;11.38;100.00
59791;BME280;47431;51.640;5.554;2023-10-31T11:26:58;101392.22;;;11.49;100.00
59791;BME280;47431;51.640;5.554;2023-10-31T11:29:25;101393.13;;;11.64;100.00
59791;BME280;47431;51.640;5.554;2023-10-31T11:31:51;101419.88;;;11.51;100.00
59791;BME280;47431;51.640;5.554;2023-10-31T11:34:17;101417.69;;;11.27;100.00
59791;BME280;47431;51.640;5.554;2023-10-31T11:36:45;101433.00;;;11.25;100.00
59791;BME280;47431;51.640;5.554;2023-10-31T11:39:13;101432.44;;;11.51;100.00
59791;BME280;47431;51.640;5.554;2023-10-31T11:41:39;101436.94;;;11.66;100.00
59791;BME280;47431;51.640;5.554;2023-10-31T11:44:05;101452.94;;;11.37;100.00
59791;BME280;47431;51.640;5.554;2023-10-31T11:46:31;101440.44;;;11.52;100.00
59791;BME280;47431;51.640;5.554;2023-10-31T11:48:57;101454.19;;;11.15;100.00
59791;BME280;47431;51.640;5.554;2023-10-31T11:51:22;101444.56;;;11.11;100.00
59791;BME280;47431;51.640;5.554;2023-10-31T11:53:49;101445.44;;;11.12;100.00
59791;BME280;47431;51.640;5.554;2023-10-31T11:56:18;101443.41;;;11.32;100.00
59791;BME280;47431;51.640;5.554;2023-10-31T11:58:43;101436.09;;;11.50;100.00
59791;BME280;47431;51.640;5.554;2023-10-31T12:01:09;101448.84;;;11.46;100.00
59791;BME280;47431;51.640;5.554;2023-10-31T12:03:42;101461.97;;;11.36;100.00
59791;BME280;47431;51.640;5.554;2023-10-31T12:06:09;101464.75;;;11.35;100.00
59791;BME280;47431;51.640;5.554;2023-10-31T12:08:37;101461.81;;;11.23;100.00
59791;BME280;47431;51.640;5.554;2023-10-31T12:11:13;101479.16;;;11.18;100.00
59791;BME280;47431;51.640;5.554;2023-10-31T12:13:40;101468.72;;;11.27;100.00
59791;BME280;47431;51.640;5.554;2023-10-31T12:16:07;101468.72;;;11.44;100.00
59791;BME280;47431;51.640;5.554;2023-10-31T12:18:34;101475.72;;;11.46;100.00
59791;BME280;47431;51.640;5.554;2023-10-31T12:21:00;101488.81;;;11.52;100.00
59791;BME280;47431;51.640;5.554;2023-10-31T12:23:26;101482.03;;;11.61;100.00
59791;BME280;47431;51.640;5.554;2023-10-31T12:25:52;101484.28;;;11.69;100.00
59791;BME280;47431;51.640;5.554;2023-10-31T12:28:18;101487.13;;;11.66;100.00
59791;BME280;47431;51.640;5.554;2023-10-31T12:30:45;101489.75;;;11.67;100.00
59791;BME280;47431;51.640;5.554;2023-10-31T12:33:11;101493.97;;;11.72;100.00
59791;BME280;47431;51.640;5.554;2023-10-31T12:35:37;101501.56;;;11.49;100.00
59791;BME280;47431;51.640;5.554;2023-10-31T12:38:03;101500.25;;;11.56;100.00
59791;BME280;47431;51.640;5.554;2023-10-31T12:40:28;101493.72;;;12.07;100.00
59791;BME280;47431;51.640;5.554;2023-10-31T12:42:54;101480.09;;;12.83;100.00
59791;BME280;47431;51.640;5.554;2023-10-31T12:45:20;101508.56;;;12.87;100.00
59791;BME280;47431;51.640;5.554;2023-10-31T12:48:03;101539.19;;;12.72;100.00